createdAt,value
2023-04-17T00:02:00.549Z,99512.19
2023-04-17T00:04:29.816Z,99508.66
2023-04-17T00:06:59.772Z,99506.88
2023-04-17T00:09:36.198Z,99508.66
2023-04-17T00:12:05.943Z,99508.66
2023-04-17T00:14:34.750Z,99510.31
2023-04-17T00:17:01.211Z,99513.84
2023-04-17T00:19:27.659Z,99510.25
2023-04-17T00:21:54.100Z,99519.00
2023-04-17T00:24:20.653Z,99512.84
2023-04-17T00:26:49.701Z,99513.72
2023-04-17T00:29:16.231Z,99517.22
2023-04-17T00:31:43.488Z,99512.81
2023-04-17T00:34:10.084Z,99510.19
2023-04-17T00:36:36.606Z,99506.66
2023-04-17T00:39:03.140Z,99507.50
2023-04-17T00:41:29.598Z,99511.88
2023-04-17T00:43:56.156Z,99518.03
2023-04-17T00:46:25.714Z,99512.66
2023-04-17T00:48:52.559Z,99509.16
2023-04-17T00:51:19.170Z,99511.78
2023-04-17T00:53:46.055Z,99515.31
2023-04-17T00:56:16.815Z,99513.53
2023-04-17T00:58:43.932Z,99513.50
2023-04-17T01:01:12.189Z,99512.59
2023-04-17T01:03:38.801Z,99517.00
2023-04-17T01:06:06.170Z,99511.72
2023-04-17T01:08:41.560Z,99514.38
2023-04-17T01:11:12.116Z,99511.72
2023-04-17T01:13:48.816Z,99509.94
2023-04-17T01:16:21.806Z,99514.38
2023-04-17T01:18:48.448Z,99513.56
2023-04-17T01:21:15.369Z,99515.41
2023-04-17T01:23:53.105Z,99516.31
2023-04-17T01:26:24.519Z,99523.19
2023-04-17T01:28:56.618Z,99524.88
2023-04-17T01:31:28.190Z,99519.47
2023-04-17T01:33:54.881Z,99529.09
2023-04-17T01:36:21.589Z,99529.94
2023-04-17T01:38:48.170Z,99526.41
2023-04-17T01:41:14.682Z,99535.09
2023-04-17T01:43:44.077Z,99535.94
2023-04-17T01:46:12.720Z,99538.44
2023-04-17T01:48:39.799Z,99527.88
2023-04-17T01:51:06.382Z,99537.53
2023-04-17T01:53:33.874Z,99541.03
2023-04-17T01:56:01.966Z,99547.16
2023-04-17T01:58:28.825Z,99539.16
2023-04-17T02:00:55.492Z,99548.81
2023-04-17T02:03:24.417Z,99541.88
2023-04-17T02:05:53.570Z,99543.53
2023-04-17T02:08:20.126Z,99539.94
2023-04-17T02:10:46.608Z,99541.63
2023-04-17T02:13:13.293Z,99543.19
2023-04-17T02:15:40.329Z,99538.78
2023-04-17T02:18:07.375Z,99547.38
2023-04-17T02:20:34.656Z,99549.16
2023-04-17T02:23:02.579Z,99545.50
2023-04-17T02:25:29.682Z,99549.91
2023-04-17T02:27:56.782Z,99550.66
2023-04-17T02:30:24.181Z,99543.59
2023-04-17T02:32:56.208Z,99541.91
2023-04-17T02:35:28.049Z,99555.16
2023-04-17T02:37:54.816Z,99554.41
2023-04-17T02:40:21.358Z,99542.13
2023-04-17T02:42:47.846Z,99549.88
2023-04-17T02:45:14.322Z,99545.31
2023-04-17T02:47:41.308Z,99550.66
2023-04-17T02:50:09.069Z,99548.75
2023-04-17T02:52:35.548Z,99549.66
2023-04-17T02:55:02.088Z,99552.31
2023-04-17T02:57:28.701Z,99549.63
2023-04-17T02:59:55.330Z,99542.59
2023-04-17T03:02:22.213Z,99541.72
2023-04-17T03:04:50.233Z,99545.25
2023-04-17T03:07:18.768Z,99540.84
2023-04-17T03:09:48.955Z,99543.56
2023-04-17T03:12:17.131Z,99545.34
2023-04-17T03:14:44.217Z,99552.31
2023-04-17T03:17:12.120Z,99547.94
2023-04-17T03:19:38.560Z,99552.34
2023-04-17T03:22:05.876Z,99558.50
2023-04-17T03:24:33.325Z,99562.00
2023-04-17T03:27:03.731Z,99568.09
2023-04-17T03:29:30.257Z,99567.25
2023-04-17T03:31:56.757Z,99576.00
2023-04-17T03:34:23.498Z,99569.78
2023-04-17T03:36:49.959Z,99571.31
2023-04-17T03:39:19.017Z,99575.75
2023-04-17T03:41:45.450Z,99578.38
2023-04-17T03:44:12.599Z,99573.78
2023-04-17T03:46:39.155Z,99572.06
2023-04-17T03:49:06.237Z,99574.75
2023-04-17T03:51:32.727Z,99575.75
2023-04-17T03:54:02.463Z,99571.28
2023-04-17T03:56:28.926Z,99570.44
2023-04-17T03:58:55.447Z,99573.19
2023-04-17T04:01:22.373Z,99572.25
2023-04-17T04:03:49.336Z,99578.41
2023-04-17T04:06:20.200Z,99582.78
2023-04-17T04:08:46.833Z,99581.06
2023-04-17T04:11:13.916Z,99576.56
2023-04-17T04:13:40.823Z,99580.09
2023-04-17T04:16:08.274Z,99584.44
2023-04-17T04:18:36.167Z,99590.56
2023-04-17T04:21:02.708Z,99593.97
2023-04-17T04:23:30.579Z,99602.72
2023-04-17T04:25:57.973Z,99591.22
2023-04-17T04:28:24.515Z,99600.81
2023-04-17T04:30:53.501Z,99602.59
2023-04-17T04:33:20.898Z,99606.06
2023-04-17T04:35:48.518Z,99606.06
2023-04-17T04:38:20.061Z,99600.75
2023-04-17T04:40:50.017Z,99599.00
2023-04-17T04:43:16.656Z,99604.34
2023-04-17T04:45:43.311Z,99602.59
2023-04-17T04:48:09.829Z,99606.91
2023-04-17T04:50:36.458Z,99616.47
2023-04-17T04:53:02.951Z,99624.34
2023-04-17T04:55:30.774Z,99614.63
2023-04-17T04:57:57.588Z,99620.06
2023-04-17T05:00:24.872Z,99618.34
2023-04-17T05:02:51.437Z,99614.81
2023-04-17T05:05:18.190Z,99626.03
2023-04-17T05:07:44.648Z,99626.13
2023-04-17T05:10:11.206Z,99630.66
2023-04-17T05:12:37.842Z,99630.72
2023-04-17T05:15:04.794Z,99632.50
2023-04-17T05:17:31.371Z,99637.69
2023-04-17T05:19:57.952Z,99639.53
2023-04-17T05:22:27.584Z,99642.97
2023-04-17T05:24:54.163Z,99641.13
2023-04-17T05:27:20.696Z,99650.69
2023-04-17T05:29:47.253Z,99653.53
2023-04-17T05:32:17.185Z,99649.16
2023-04-17T05:34:43.649Z,99652.72
2023-04-17T05:37:10.093Z,99659.84
2023-04-17T05:39:36.636Z,99662.50
2023-04-17T05:42:03.138Z,99662.59
2023-04-17T05:44:30.172Z,99663.63
2023-04-17T05:46:57.387Z,99661.03
2023-04-17T05:49:23.918Z,99661.31
2023-04-17T05:51:52.708Z,99664.09
2023-04-17T05:54:19.175Z,99660.91
2023-04-17T05:56:45.760Z,99666.88
2023-04-17T05:59:12.447Z,99664.13
2023-04-17T06:01:39.593Z,99668.56
2023-04-17T06:04:06.621Z,99667.78
2023-04-17T06:06:33.426Z,99662.78
2023-04-17T06:08:59.857Z,99667.19
2023-04-17T06:11:27.173Z,99672.63
2023-04-17T06:13:53.710Z,99678.03
2023-04-17T06:16:20.472Z,99677.22
2023-04-17T06:18:49.726Z,99677.41
2023-04-17T06:21:18.537Z,99677.56
2023-04-17T06:23:44.982Z,99679.25
2023-04-17T06:26:12.292Z,99682.72
2023-04-17T06:28:38.785Z,99685.28
2023-04-17T06:31:05.450Z,99678.00
2023-04-17T06:33:32.499Z,99677.59
2023-04-17T06:35:58.961Z,99680.84
2023-04-17T06:38:25.424Z,99679.53
2023-04-17T06:40:52.839Z,99679.75
2023-04-17T06:43:19.365Z,99678.84
2023-04-17T06:45:45.873Z,99686.72
2023-04-17T06:48:12.346Z,99695.50
2023-04-17T06:50:38.896Z,99698.03
2023-04-17T06:53:05.732Z,99691.16
2023-04-17T06:55:32.235Z,99701.44
2023-04-17T06:57:58.714Z,99703.13
2023-04-17T07:00:25.365Z,99700.59
2023-04-17T07:02:52.009Z,99705.22
2023-04-17T07:05:18.597Z,99706.97
2023-04-17T07:07:45.209Z,99711.44
2023-04-17T07:10:11.738Z,99713.16
2023-04-17T07:12:38.241Z,99714.84
2023-04-17T07:15:05.094Z,99712.28
2023-04-17T07:17:31.704Z,99717.50
2023-04-17T07:19:58.161Z,99711.69
2023-04-17T07:22:26.585Z,99707.63
2023-04-17T07:24:53.754Z,99712.44
2023-04-17T07:27:20.349Z,99715.19
2023-04-17T07:29:52.823Z,99716.03
2023-04-17T07:32:19.396Z,99723.03
2023-04-17T07:34:45.989Z,99720.31
2023-04-17T07:37:12.472Z,99717.63
2023-04-17T07:39:39.014Z,99719.53
2023-04-17T07:42:08.766Z,99720.50
2023-04-17T07:44:35.488Z,99726.78
2023-04-17T07:47:02.152Z,99727.03
2023-04-17T07:49:28.789Z,99723.00
2023-04-17T07:51:55.565Z,99715.31
2023-04-17T07:54:22.043Z,99712.72
2023-04-17T07:56:49.444Z,99720.69
2023-04-17T07:59:19.037Z,99724.78
2023-04-17T08:01:45.574Z,99723.13
2023-04-17T08:04:15.516Z,99718.94
2023-04-17T08:06:42.172Z,99722.81
2023-04-17T08:09:08.635Z,99722.09
2023-04-17T08:11:40.144Z,99724.91
2023-04-17T08:14:12.810Z,99727.59
2023-04-17T08:16:39.305Z,99724.97
2023-04-17T08:19:05.880Z,99729.16
2023-04-17T08:21:32.404Z,99731.06
2023-04-17T08:23:59.036Z,99736.59
2023-04-17T08:26:25.516Z,99735.56
2023-04-17T08:28:53.728Z,99734.28
2023-04-17T08:31:20.406Z,99734.66
2023-04-17T08:33:46.920Z,99742.72
2023-04-17T08:36:13.669Z,99741.91
2023-04-17T08:38:42.036Z,99747.00
2023-04-17T08:41:13.258Z,99736.63
2023-04-17T08:43:40.272Z,99737.34
2023-04-17T08:46:07.532Z,99751.69
2023-04-17T08:48:34.191Z,99756.09
2023-04-17T08:51:01.711Z,99757.91
2023-04-17T08:53:28.220Z,99760.03
2023-04-17T08:55:54.690Z,99757.25
2023-04-17T08:58:28.448Z,99762.38
2023-04-17T09:00:55.945Z,99752.72
2023-04-17T09:03:22.553Z,99758.16
2023-04-17T09:05:49.201Z,99765.41
2023-04-17T09:08:20.769Z,99763.56
2023-04-17T09:10:48.792Z,99763.59
2023-04-17T09:13:20.877Z,99769.72
2023-04-17T09:16:03.399Z,99768.66
2023-04-17T09:18:31.474Z,99764.56
2023-04-17T09:20:59.826Z,99768.94
2023-04-17T09:23:45.838Z,99775.56
2023-04-17T09:26:16.562Z,99774.69
2023-04-17T09:29:14.604Z,99779.03
2023-04-17T09:31:42.991Z,99779.09
2023-04-17T09:34:15.280Z,99773.03
2023-04-17T09:36:43.836Z,99771.50
2023-04-17T09:39:23.804Z,99770.50
2023-04-17T09:42:02.317Z,99773.31
2023-04-17T09:44:30.329Z,99770.78
2023-04-17T09:46:57.323Z,99770.34
2023-04-17T09:49:52.829Z,99763.38
2023-04-17T09:52:23.745Z,99771.19
2023-04-17T09:54:51.308Z,99771.31
2023-04-17T09:57:18.615Z,99765.13
2023-04-17T09:59:48.047Z,99768.69
2023-04-17T10:02:17.025Z,99768.94
2023-04-17T10:04:45.150Z,99770.97
2023-04-17T10:07:13.252Z,99773.63
2023-04-17T10:09:45.636Z,99771.00
2023-04-17T10:12:15.357Z,99769.13
2023-04-17T10:14:46.586Z,99769.28
2023-04-17T10:17:31.755Z,99766.41
2023-04-17T10:20:23.120Z,99770.97
2023-04-17T10:22:54.872Z,99767.50
2023-04-17T10:25:28.214Z,99769.44
2023-04-17T10:27:58.300Z,99767.50
2023-04-17T10:30:44.913Z,99764.09
2023-04-17T10:33:20.096Z,99758.75
2023-04-17T10:35:46.779Z,99764.06
2023-04-17T10:38:13.293Z,99763.19
2023-04-17T10:40:43.060Z,99757.09
2023-04-17T10:43:17.561Z,99765.22
2023-04-17T10:46:12.880Z,99757.16
2023-04-17T10:48:52.807Z,99761.66
2023-04-17T10:51:28.910Z,99758.16
2023-04-17T10:54:03.688Z,99753.66
2023-04-17T10:56:40.641Z,99753.78
2023-04-17T10:59:09.657Z,99753.72
2023-04-17T11:01:48.578Z,99752.75
2023-04-17T11:04:27.530Z,99754.56
2023-04-17T11:06:55.933Z,99747.53
2023-04-17T11:09:30.945Z,99749.34
2023-04-17T11:12:03.706Z,99746.69
2023-04-17T11:14:31.095Z,99743.97
2023-04-17T11:16:57.759Z,99735.25
2023-04-17T11:19:26.164Z,99744.03
2023-04-17T11:21:54.650Z,99745.00
2023-04-17T11:24:28.103Z,99751.25
2023-04-17T11:26:56.709Z,99745.03
2023-04-17T11:29:24.536Z,99748.47
2023-04-17T11:31:53.794Z,99744.16
2023-04-17T11:34:21.128Z,99748.59
2023-04-17T11:36:54.863Z,99740.50
2023-04-17T11:39:23.358Z,99742.38
2023-04-17T11:41:51.919Z,99750.34
2023-04-17T11:44:22.707Z,99747.69
2023-04-17T11:46:51.260Z,99741.56
2023-04-17T11:49:27.377Z,99738.06
2023-04-17T11:51:59.246Z,99738.94
2023-04-17T11:54:34.522Z,99740.72
2023-04-17T11:57:07.008Z,99746.03
2023-04-17T11:59:37.787Z,99733.66
2023-04-17T12:02:08.301Z,99744.25
2023-04-17T12:04:39.673Z,99741.56
2023-04-17T12:07:11.279Z,99730.94
2023-04-17T12:09:37.766Z,99729.19
2023-04-17T12:12:06.416Z,99733.63
2023-04-17T12:14:33.256Z,99726.53
2023-04-17T12:16:59.868Z,99732.78
2023-04-17T12:19:27.449Z,99722.16
2023-04-17T12:21:54.616Z,99715.94
2023-04-17T12:24:22.895Z,99722.22
2023-04-17T12:26:53.445Z,99721.34
2023-04-17T12:29:32.231Z,99731.91
2023-04-17T12:32:07.415Z,99733.53
2023-04-17T12:34:34.071Z,99729.09
2023-04-17T12:37:01.125Z,99726.41
2023-04-17T12:39:27.629Z,99723.81
2023-04-17T12:41:54.089Z,99724.69
2023-04-17T12:44:20.691Z,99724.72
2023-04-17T12:46:47.178Z,99727.44
2023-04-17T12:49:13.736Z,99716.81
2023-04-17T12:51:41.208Z,99729.19
2023-04-17T12:54:08.208Z,99716.84
2023-04-17T12:56:34.896Z,99716.81
2023-04-17T12:59:02.990Z,99717.69
2023-04-17T13:01:32.944Z,99708.91
2023-04-17T13:03:59.600Z,99714.25
2023-04-17T13:06:28.033Z,99710.59
2023-04-17T13:08:54.538Z,99705.28
2023-04-17T13:11:23.440Z,99713.22
2023-04-17T13:13:49.921Z,99719.41
2023-04-17T13:16:16.457Z,99721.97
2023-04-17T13:18:42.992Z,99719.22
2023-04-17T13:21:09.515Z,99716.53
2023-04-17T13:23:36.020Z,99718.28
2023-04-17T13:26:02.481Z,99713.91
2023-04-17T13:28:28.936Z,99707.88
2023-04-17T13:30:55.828Z,99702.66
2023-04-17T13:33:22.370Z,99709.78
2023-04-17T13:35:53.181Z,99699.13
2023-04-17T13:38:19.653Z,99694.66
2023-04-17T13:40:46.206Z,99703.44
2023-04-17T13:43:12.662Z,99703.41
2023-04-17T13:45:39.161Z,99699.81
2023-04-17T13:48:05.783Z,99703.34
2023-04-17T13:50:32.371Z,99705.09
2023-04-17T13:52:58.855Z,99707.69
2023-04-17T13:55:25.412Z,99708.44
2023-04-17T13:57:51.898Z,99699.50
2023-04-17T14:00:18.891Z,99708.38
2023-04-17T14:02:45.499Z,99701.38
2023-04-17T14:05:12.278Z,99699.69
2023-04-17T14:07:38.764Z,99701.50
2023-04-17T14:10:09.122Z,99703.34
2023-04-17T14:12:36.286Z,99696.34
2023-04-17T14:15:03.026Z,99688.38
2023-04-17T14:17:29.592Z,99696.25
2023-04-17T14:19:59.122Z,99696.25
2023-04-17T14:22:25.619Z,99687.47
2023-04-17T14:24:52.107Z,99687.47
2023-04-17T14:27:18.572Z,99695.38
2023-04-17T14:29:47.487Z,99697.09
2023-04-17T14:32:13.925Z,99693.50
2023-04-17T14:34:40.404Z,99689.06
2023-04-17T14:37:06.882Z,99684.75
2023-04-17T14:39:33.389Z,99685.66
2023-04-17T14:42:01.912Z,99681.22
2023-04-17T14:44:28.874Z,99683.88
2023-04-17T14:46:56.801Z,99677.78
2023-04-17T14:49:26.717Z,99674.22
2023-04-17T14:51:53.264Z,99675.13
2023-04-17T14:54:19.732Z,99673.31
2023-04-17T14:56:46.255Z,99677.72
2023-04-17T14:59:12.921Z,99671.53
2023-04-17T15:01:39.611Z,99674.19
2023-04-17T15:04:06.710Z,99674.19
2023-04-17T15:06:33.464Z,99663.53
2023-04-17T15:08:59.897Z,99673.25
2023-04-17T15:11:26.447Z,99665.34
2023-04-17T15:13:52.888Z,99658.25
2023-04-17T15:16:22.267Z,99657.38
2023-04-17T15:18:48.916Z,99670.59
2023-04-17T15:21:16.349Z,99667.06
2023-04-17T15:23:42.810Z,99667.94
2023-04-17T15:26:09.320Z,99667.06
2023-04-17T15:28:36.883Z,99660.81
2023-04-17T15:31:03.494Z,99663.47
2023-04-17T15:33:30.140Z,99660.81
2023-04-17T15:35:58.442Z,99664.34
2023-04-17T15:38:25.817Z,99664.31
2023-04-17T15:40:52.766Z,99666.13
2023-04-17T15:43:20.004Z,99665.19
2023-04-17T15:45:48.694Z,99666.00
2023-04-17T15:48:15.834Z,99665.03
2023-04-17T15:50:42.430Z,99672.94
2023-04-17T15:53:09.820Z,99668.50
2023-04-17T15:55:36.771Z,99666.69
2023-04-17T15:58:03.475Z,99671.16
2023-04-17T16:00:30.023Z,99664.09
2023-04-17T16:02:56.557Z,99651.72
2023-04-17T16:05:23.069Z,99646.59
2023-04-17T16:07:50.027Z,99651.91
2023-04-17T16:10:16.971Z,99650.19
2023-04-17T16:12:45.013Z,99651.09
2023-04-17T16:15:16.286Z,99659.94
2023-04-17T16:17:43.397Z,99659.88
2023-04-17T16:20:13.269Z,99659.00
2023-04-17T16:22:40.203Z,99654.53
2023-04-17T16:25:09.983Z,99666.91
2023-04-17T16:27:37.060Z,99662.47
2023-04-17T16:30:05.045Z,99665.13
2023-04-17T16:32:31.945Z,99663.34
2023-04-17T16:34:58.790Z,99659.81
2023-04-17T16:37:25.604Z,99666.88
2023-04-17T16:39:52.274Z,99660.69
2023-04-17T16:42:18.845Z,99661.50
2023-04-17T16:44:48.807Z,99665.00
2023-04-17T16:47:15.411Z,99672.94
2023-04-17T16:49:42.613Z,99669.38
2023-04-17T16:52:09.657Z,99672.94
2023-04-17T16:54:36.104Z,99673.78
2023-04-17T16:57:02.673Z,99668.50
2023-04-17T16:59:29.111Z,99670.28
2023-04-17T17:01:55.669Z,99672.03
2023-04-17T17:04:22.263Z,99669.38
2023-04-17T17:06:48.815Z,99671.09
2023-04-17T17:09:15.559Z,99672.88
2023-04-17T17:11:45.211Z,99676.34
2023-04-17T17:14:11.755Z,99678.09
2023-04-17T17:16:40.627Z,99682.53
2023-04-17T17:19:07.183Z,99682.50
2023-04-17T17:21:33.672Z,99676.28
2023-04-17T17:24:00.931Z,99686.88
2023-04-17T17:26:27.405Z,99689.44
2023-04-17T17:28:55.366Z,99683.22
2023-04-17T17:31:21.958Z,99684.91
2023-04-17T17:33:50.182Z,99682.22
2023-04-17T17:36:16.989Z,99688.31
2023-04-17T17:38:44.000Z,99689.09
2023-04-17T17:41:10.650Z,99695.25
2023-04-17T17:43:38.925Z,99690.72
2023-04-17T17:46:05.543Z,99695.03
2023-04-17T17:48:34.079Z,99695.91
2023-04-17T17:51:00.531Z,99694.03
2023-04-17T17:53:27.320Z,99700.09
2023-04-17T17:55:55.978Z,99707.91
2023-04-17T17:58:23.305Z,99712.22
2023-04-17T18:00:53.378Z,99712.22
2023-04-17T18:03:20.722Z,99713.88
2023-04-17T18:05:47.611Z,99718.19
2023-04-17T18:08:14.474Z,99715.50
2023-04-17T18:10:40.996Z,99718.25
2023-04-17T18:13:07.508Z,99723.47
2023-04-17T18:15:34.106Z,99722.59
2023-04-17T18:18:00.749Z,99732.25
2023-04-17T18:20:27.378Z,99733.06
2023-04-17T18:22:53.965Z,99730.38
2023-04-17T18:25:20.626Z,99737.34
2023-04-17T18:27:47.081Z,99740.06
2023-04-17T18:30:14.253Z,99745.38
2023-04-17T18:32:40.752Z,99747.03
2023-04-17T18:35:07.736Z,99754.78
2023-04-17T18:37:34.207Z,99754.69
2023-04-17T18:40:00.745Z,99754.56
2023-04-17T18:42:27.179Z,99764.09
2023-04-17T18:44:53.661Z,99764.81
2023-04-17T18:47:20.359Z,99774.44
2023-04-17T18:49:47.010Z,99781.31
2023-04-17T18:52:13.508Z,99782.94
2023-04-17T18:54:40.035Z,99788.97
2023-04-17T18:57:06.582Z,99791.53
2023-04-17T18:59:33.136Z,99796.72
2023-04-17T19:01:59.592Z,99800.22
2023-04-17T19:04:26.752Z,99800.25
2023-04-17T19:06:53.217Z,99804.66
2023-04-17T19:09:19.780Z,99808.88
2023-04-17T19:11:46.634Z,99807.91
2023-04-17T19:14:13.385Z,99807.81
2023-04-17T19:16:40.176Z,99813.00
2023-04-17T19:19:08.280Z,99816.44
2023-04-17T19:21:34.800Z,99814.38
2023-04-17T19:24:01.254Z,99820.53
2023-04-17T19:26:27.760Z,99826.72
2023-04-17T19:28:55.051Z,99823.00
2023-04-17T19:31:21.891Z,99823.81
2023-04-17T19:33:48.384Z,99821.19
2023-04-17T19:36:14.930Z,99827.34
2023-04-17T19:38:41.397Z,99824.41
2023-04-17T19:41:17.277Z,99826.97
2023-04-17T19:43:49.715Z,99824.16
2023-04-17T19:46:17.065Z,99822.44
2023-04-17T19:48:45.301Z,99818.81
2023-04-17T19:51:15.953Z,99820.34
2023-04-17T19:53:43.633Z,99818.53
2023-04-17T19:56:10.837Z,99817.66
2023-04-17T19:58:38.181Z,99817.59
2023-04-17T20:01:05.281Z,99822.88
2023-04-17T20:03:32.466Z,99824.31
2023-04-17T20:06:00.129Z,99813.69
2023-04-17T20:08:26.740Z,99818.94
2023-04-17T20:10:56.384Z,99820.53
2023-04-17T20:13:22.845Z,99814.16
2023-04-17T20:15:49.460Z,99823.06
2023-04-17T20:18:18.844Z,99825.84
2023-04-17T20:20:45.436Z,99818.81
2023-04-17T20:23:12.216Z,99822.94
2023-04-17T20:25:38.718Z,99827.09
2023-04-17T20:28:09.627Z,99828.75
2023-04-17T20:30:41.579Z,99825.19
2023-04-17T20:33:11.100Z,99829.44
2023-04-17T20:35:37.659Z,99829.69
2023-04-17T20:38:04.533Z,99824.16
2023-04-17T20:40:31.031Z,99828.72
2023-04-17T20:42:57.491Z,99833.09
2023-04-17T20:45:23.970Z,99822.31
2023-04-17T20:50:24.080Z,99822.31
2023-04-17T20:52:50.712Z,99821.41
2023-04-17T20:55:19.569Z,99819.78
2023-04-17T20:57:46.381Z,99826.81
2023-04-17T21:00:13.337Z,99829.41
2023-04-17T21:02:40.007Z,99826.72
2023-04-17T21:05:09.621Z,99828.44
2023-04-17T21:07:36.597Z,99825.88
2023-04-17T21:10:03.601Z,99820.38
2023-04-17T21:12:32.725Z,99823.09
2023-04-17T21:15:01.955Z,99822.19
2023-04-17T21:17:28.583Z,99823.09
2023-04-17T21:19:56.230Z,99830.09
2023-04-17T21:22:22.841Z,99821.25
2023-04-17T21:24:49.465Z,99829.31
2023-04-17T21:27:16.202Z,99822.19
2023-04-17T21:29:43.184Z,99824.97
2023-04-17T21:32:12.437Z,99828.47
2023-04-17T21:34:39.146Z,99821.41
2023-04-17T21:37:05.614Z,99825.75
2023-04-17T21:39:33.327Z,99829.31
2023-04-17T21:42:00.222Z,99825.75
2023-04-17T21:44:26.706Z,99826.53
2023-04-17T21:46:53.330Z,99823.72
2023-04-17T21:49:28.295Z,99829.78
2023-04-17T21:52:02.583Z,99825.50
2023-04-17T21:54:29.051Z,99826.38
2023-04-17T21:56:55.683Z,99827.97
2023-04-17T21:59:22.160Z,99833.31
2023-04-17T22:01:48.667Z,99828.81
2023-04-17T22:04:15.281Z,99833.22
2023-04-17T22:06:44.492Z,99827.06
2023-04-17T22:09:12.480Z,99833.84
2023-04-17T22:11:48.450Z,99827.81
2023-04-17T22:14:16.529Z,99827.84
2023-04-17T22:16:43.593Z,99825.19
2023-04-17T22:19:13.468Z,99826.53
2023-04-17T22:21:40.188Z,99830.34
2023-04-17T22:24:10.687Z,99823.34
2023-04-17T22:26:43.702Z,99825.03
2023-04-17T22:29:10.173Z,99827.38
2023-04-17T22:31:36.793Z,99828.34
2023-04-17T22:34:03.652Z,99829.13
2023-04-17T22:36:36.069Z,99820.25
2023-04-17T22:39:02.636Z,99831.66
2023-04-17T22:41:32.324Z,99827.34
2023-04-17T22:43:58.811Z,99824.66
2023-04-17T22:46:25.289Z,99824.66
2023-04-17T22:48:51.802Z,99817.63
2023-04-17T22:51:18.250Z,99818.28
2023-04-17T22:53:44.732Z,99826.13
2023-04-17T22:56:12.871Z,99824.19
2023-04-17T22:58:39.363Z,99829.47
2023-04-17T23:01:09.155Z,99833.06
2023-04-17T23:03:35.745Z,99832.13
2023-04-17T23:06:03.086Z,99831.97
2023-04-17T23:08:32.591Z,99833.75
2023-04-17T23:11:00.780Z,99831.88
2023-04-17T23:13:28.164Z,99829.91
2023-04-17T23:15:54.836Z,99828.31
2023-04-17T23:18:21.428Z,99828.47
2023-04-17T23:20:47.949Z,99833.63
2023-04-17T23:23:18.425Z,99827.47
2023-04-17T23:25:46.093Z,99831.88
2023-04-17T23:28:12.642Z,99830.09
2023-04-17T23:30:39.183Z,99830.13
2023-04-17T23:33:05.739Z,99833.63
2023-04-17T23:35:32.242Z,99832.56
2023-04-17T23:37:58.707Z,99827.22
2023-04-17T23:40:26.290Z,99833.34
2023-04-17T23:42:53.070Z,99834.28
2023-04-17T23:45:22.857Z,99832.66
2023-04-17T23:47:49.433Z,99830.88
2023-04-17T23:50:16.017Z,99826.50
2023-04-17T23:52:42.503Z,99831.59
2023-04-17T23:55:09.265Z,99825.63
2023-04-17T23:57:37.736Z,99836.06
